createdAt,value
2018-08-25T00:00:44.819Z,98162.00
2018-08-25T00:03:14.046Z,98153.27
2018-08-25T00:05:43.221Z,98151.52
2018-08-25T00:08:12.505Z,98151.88
2018-08-25T00:10:41.734Z,98157.94
2018-08-25T00:13:11.440Z,98153.16
2018-08-25T00:15:40.643Z,98155.23
2018-08-25T00:18:10.708Z,98157.20
2018-08-25T00:20:40.206Z,98158.56
2018-08-25T00:23:09.590Z,98158.41
2018-08-25T00:25:38.856Z,98163.27
2018-08-25T00:28:08.073Z,98164.08
2018-08-25T00:30:42.539Z,98170.33
2018-08-25T00:33:11.710Z,98173.16
2018-08-25T00:35:40.963Z,98171.89
2018-08-25T00:38:10.235Z,98166.55
2018-08-25T00:40:39.449Z,98165.94
2018-08-25T00:43:08.878Z,98170.35
2018-08-25T00:45:38.223Z,98167.17
2018-08-25T00:48:07.611Z,98172.09
2018-08-25T00:50:36.940Z,98172.80
2018-08-25T00:53:06.609Z,98173.42
2018-08-25T00:55:36.012Z,98175.75
2018-08-25T00:58:05.432Z,98175.20
2018-08-25T01:00:34.905Z,98173.19
2018-08-25T01:03:04.247Z,98176.23
2018-08-25T01:05:33.431Z,98176.62
2018-08-25T01:08:02.760Z,98168.75
2018-08-25T01:10:31.997Z,98177.59
2018-08-25T01:13:01.289Z,98179.87
2018-08-25T01:15:30.561Z,98184.00
2018-08-25T01:17:59.965Z,98187.58
2018-08-25T01:20:29.202Z,98187.06
2018-08-25T01:22:58.474Z,98184.75
2018-08-25T01:25:27.698Z,98190.50
2018-08-25T01:27:56.999Z,98186.95
2018-08-25T01:30:26.443Z,98185.97
2018-08-25T01:32:55.627Z,98193.06
2018-08-25T01:35:24.776Z,98187.68
2018-08-25T01:37:54.331Z,98187.52
2018-08-25T01:40:23.555Z,98188.55
2018-08-25T01:42:52.763Z,98184.89
2018-08-25T01:45:22.131Z,98188.69
2018-08-25T01:47:52.083Z,98194.95
2018-08-25T01:50:21.277Z,98189.30
2018-08-25T01:52:50.451Z,98193.67
2018-08-25T01:55:19.690Z,98190.17
2018-08-25T01:57:48.875Z,98197.66
2018-08-25T02:00:18.274Z,98200.84
2018-08-25T02:02:47.594Z,98190.03
2018-08-25T02:05:16.685Z,98200.72
2018-08-25T02:07:45.927Z,98197.28
2018-08-25T02:10:15.092Z,98201.59
2018-08-25T02:12:44.286Z,98209.02
2018-08-25T02:15:13.471Z,98211.78
2018-08-25T02:17:42.677Z,98211.53
2018-08-25T02:20:11.837Z,98210.78
2018-08-25T02:22:41.009Z,98199.02
2018-08-25T02:25:11.110Z,98183.50
2018-08-25T02:27:40.263Z,98213.07
2018-08-25T02:30:09.479Z,98212.01
2018-08-25T02:32:38.825Z,98209.95
2018-08-25T02:35:08.262Z,98209.08
2018-08-25T02:37:37.468Z,98217.19
2018-08-25T02:40:06.862Z,98213.07
2018-08-25T02:42:36.118Z,98214.23
2018-08-25T02:45:05.541Z,98218.15
2018-08-25T02:47:35.258Z,98218.22
2018-08-25T02:50:04.603Z,98214.00
2018-08-25T02:52:33.809Z,98216.31
2018-08-25T02:55:03.015Z,98219.40
2018-08-25T02:57:32.173Z,98210.53
2018-08-25T03:00:01.795Z,98223.06
2018-08-25T03:02:31.609Z,98216.16
2018-08-25T03:05:00.820Z,98215.35
2018-08-25T03:07:29.989Z,98214.06
2018-08-25T03:09:59.276Z,98212.55
2018-08-25T03:12:28.545Z,98214.06
2018-08-25T03:14:57.728Z,98214.12
2018-08-25T03:17:26.889Z,98217.56
2018-08-25T03:19:56.139Z,98218.71
2018-08-25T03:22:25.378Z,98218.78
2018-08-25T03:24:54.580Z,98226.20
2018-08-25T03:27:23.765Z,98225.97
2018-08-25T03:29:52.991Z,98223.14
2018-08-25T03:32:22.234Z,98228.05
2018-08-25T03:34:51.387Z,98231.38
2018-08-25T03:37:20.580Z,98237.66
2018-08-25T03:39:49.765Z,98242.81
2018-08-25T03:42:18.965Z,98242.73
2018-08-25T03:44:48.247Z,98235.13
2018-08-25T03:47:17.421Z,98230.73
2018-08-25T03:49:46.624Z,98230.95
2018-08-25T03:52:15.847Z,98228.50
2018-08-25T03:54:45.023Z,98233.63
2018-08-25T03:57:14.207Z,98231.80
2018-08-25T03:59:43.537Z,98229.58
2018-08-25T04:02:12.736Z,98238.59
2018-08-25T04:04:41.936Z,98242.38
2018-08-25T04:07:11.318Z,98240.55
2018-08-25T04:09:40.897Z,98240.86
2018-08-25T04:12:10.081Z,98250.30
2018-08-25T04:14:39.318Z,98248.58
2018-08-25T04:17:08.626Z,98252.78
2018-08-25T04:19:37.957Z,98254.13
2018-08-25T04:22:07.220Z,98250.36
2018-08-25T04:24:36.307Z,98263.97
2018-08-25T04:27:05.816Z,98274.42
2018-08-25T04:29:34.985Z,98273.41
2018-08-25T04:32:04.181Z,98267.20
2018-08-25T04:34:33.325Z,98271.78
2018-08-25T04:37:02.520Z,98271.52
2018-08-25T04:39:31.690Z,98269.30
2018-08-25T04:42:00.810Z,98275.45
2018-08-25T04:44:29.951Z,98266.55
2018-08-25T04:46:59.093Z,98268.48
2018-08-25T04:49:28.289Z,98271.50
2018-08-25T04:51:57.536Z,98264.86
2018-08-25T04:54:26.700Z,98262.16
2018-08-25T04:56:55.875Z,98266.64
2018-08-25T04:59:25.037Z,98260.96
2018-08-25T05:01:54.334Z,98258.55
2018-08-25T05:04:23.376Z,98263.11
2018-08-25T05:06:52.666Z,98260.59
2018-08-25T05:09:21.916Z,98261.39
2018-08-25T05:11:51.065Z,98261.88
2018-08-25T05:14:23.678Z,98267.85
2018-08-25T05:16:52.866Z,98268.73
2018-08-25T05:19:22.082Z,98277.13
2018-08-25T05:21:51.298Z,98281.91
2018-08-25T05:24:20.439Z,98279.70
2018-08-25T05:26:49.745Z,98285.30
2018-08-25T05:29:18.946Z,98282.48
2018-08-25T05:31:48.382Z,98282.31
2018-08-25T05:34:17.561Z,98289.77
2018-08-25T05:36:46.767Z,98295.11
2018-08-25T05:39:15.912Z,98289.62
2018-08-25T05:41:45.432Z,98285.45
2018-08-25T05:44:14.730Z,98286.80
2018-08-25T05:46:43.819Z,98287.53
2018-08-25T05:49:12.978Z,98289.98
2018-08-25T05:51:42.158Z,98296.13
2018-08-25T05:54:11.462Z,98290.59
2018-08-25T05:56:40.661Z,98289.86
2018-08-25T05:59:09.985Z,98285.07
2018-08-25T06:01:39.174Z,98287.28
2018-08-25T06:04:08.442Z,98288.64
2018-08-25T06:06:37.877Z,98290.73
2018-08-25T06:09:10.156Z,98292.69
2018-08-25T06:11:39.854Z,98293.05
2018-08-25T06:14:09.038Z,98296.68
2018-08-25T06:16:38.225Z,98298.22
2018-08-25T06:19:07.897Z,98296.39
2018-08-25T06:21:37.069Z,98300.53
2018-08-25T06:24:06.339Z,98305.84
2018-08-25T06:26:35.516Z,98315.77
2018-08-25T06:29:04.785Z,98317.72
2018-08-25T06:31:34.329Z,98319.22
2018-08-25T06:34:03.774Z,98319.42
2018-08-25T06:36:32.947Z,98315.63
2018-08-25T06:39:02.128Z,98315.95
2018-08-25T06:41:31.362Z,98317.11
2018-08-25T06:44:00.507Z,98308.89
2018-08-25T06:46:29.750Z,98313.06
2018-08-25T06:48:58.975Z,98313.66
2018-08-25T06:51:28.142Z,98320.30
2018-08-25T06:53:57.326Z,98323.45
2018-08-25T06:56:26.561Z,98323.92
2018-08-25T06:58:55.781Z,98326.21
2018-08-25T07:01:24.959Z,98327.32
2018-08-25T07:03:54.417Z,98321.86
2018-08-25T07:06:23.809Z,98316.75
2018-08-25T07:08:53.530Z,98323.51
2018-08-25T07:11:22.717Z,98320.45
2018-08-25T07:13:51.853Z,98327.81
2018-08-25T07:16:22.156Z,98332.13
2018-08-25T07:18:51.527Z,98345.44
2018-08-25T07:21:21.969Z,98336.94
2018-08-25T07:23:51.538Z,98333.48
2018-08-25T07:26:20.707Z,98328.68
2018-08-25T07:28:49.882Z,98343.89
2018-08-25T07:31:19.127Z,98342.41
2018-08-25T07:33:48.937Z,98344.50
2018-08-25T07:36:18.149Z,98347.58
2018-08-25T07:38:47.385Z,98354.50
2018-08-25T07:41:16.519Z,98349.30
2018-08-25T07:43:45.633Z,98358.77
2018-08-25T07:46:14.819Z,98358.16
2018-08-25T07:48:44.518Z,98358.95
2018-08-25T07:51:13.590Z,98367.09
2018-08-25T07:53:42.850Z,98367.09
2018-08-25T07:56:12.066Z,98366.64
2018-08-25T07:58:41.209Z,98364.58
2018-08-25T08:01:10.497Z,98368.63
2018-08-25T08:03:39.739Z,98372.30
2018-08-25T08:06:08.971Z,98368.66
2018-08-25T08:08:38.172Z,98376.01
2018-08-25T08:11:07.631Z,98378.81
2018-08-25T08:13:36.798Z,98375.95
2018-08-25T08:16:06.490Z,98378.65
2018-08-25T08:18:35.848Z,98377.16
2018-08-25T08:21:05.244Z,98379.72
2018-08-25T08:23:34.570Z,98383.70
2018-08-25T08:26:03.851Z,98388.69
2018-08-25T08:28:33.134Z,98390.92
2018-08-25T08:31:02.323Z,98392.76
2018-08-25T08:33:31.577Z,98396.32
2018-08-25T08:36:00.807Z,98390.12
2018-08-25T08:38:32.533Z,98391.47
2018-08-25T08:41:01.846Z,98399.25
2018-08-25T08:43:31.034Z,98399.25
2018-08-25T08:46:00.297Z,98400.66
2018-08-25T08:48:29.607Z,98399.86
2018-08-25T08:50:59.344Z,98397.47
2018-08-25T08:53:28.616Z,98402.94
2018-08-25T08:55:57.800Z,98406.23
2018-08-25T08:58:27.159Z,98403.77
2018-08-25T09:00:56.518Z,98402.94
2018-08-25T09:03:25.727Z,98407.13
2018-08-25T09:05:54.894Z,98405.19
2018-08-25T09:08:24.080Z,98401.75
2018-08-25T09:10:53.264Z,98410.46
2018-08-25T09:13:22.553Z,98400.63
2018-08-25T09:15:51.807Z,98401.05
2018-08-25T09:18:20.962Z,98399.31
2018-08-25T09:20:50.163Z,98399.19
2018-08-25T09:23:19.474Z,98402.64
2018-08-25T09:25:48.766Z,98400.94
2018-08-25T09:28:17.993Z,98396.52
2018-08-25T09:30:47.181Z,98391.48
2018-08-25T09:33:16.372Z,98398.02
2018-08-25T09:35:45.597Z,98390.56
2018-08-25T09:38:15.145Z,98386.36
2018-08-25T09:40:44.333Z,98384.44
2018-08-25T09:43:13.500Z,98392.17
2018-08-25T09:45:42.892Z,98392.58
2018-08-25T09:48:12.061Z,98392.26
2018-08-25T09:50:41.267Z,98391.16
2018-08-25T09:53:10.495Z,98393.73
2018-08-25T09:55:39.731Z,98393.53
2018-08-25T09:58:08.996Z,98398.14
2018-08-25T10:00:38.244Z,98394.19
2018-08-25T10:03:07.810Z,98390.17
2018-08-25T10:05:36.998Z,98389.41
2018-08-25T10:08:06.278Z,98387.94
2018-08-25T10:10:35.571Z,98394.71
2018-08-25T10:13:04.774Z,98388.16
2018-08-25T10:15:33.965Z,98387.31
2018-08-25T10:18:04.159Z,98388.97
2018-08-25T10:20:33.866Z,98392.00
2018-08-25T10:23:03.102Z,98388.74
2018-08-25T10:25:32.585Z,98393.17
2018-08-25T10:28:01.783Z,98383.47
2018-08-25T10:30:31.030Z,98378.46
2018-08-25T10:33:00.338Z,98381.90
2018-08-25T10:35:29.512Z,98381.02
2018-08-25T10:37:58.756Z,98372.89
2018-08-25T10:40:27.933Z,98375.19
2018-08-25T10:42:57.180Z,98379.99
2018-08-25T10:45:26.392Z,98372.38
2018-08-25T10:47:55.843Z,98371.73
2018-08-25T10:50:25.553Z,98375.70
2018-08-25T10:52:54.723Z,98374.42
2018-08-25T10:55:23.941Z,98376.29
2018-08-25T10:57:53.153Z,98363.59
2018-08-25T11:00:22.463Z,98367.95
2018-08-25T11:02:51.581Z,98368.03
2018-08-25T11:05:20.785Z,98361.69
2018-08-25T11:07:50.021Z,98361.87
2018-08-25T11:10:19.308Z,98363.05
2018-08-25T11:12:48.586Z,98349.20
2018-08-25T11:15:17.835Z,98347.48
2018-08-25T11:17:47.255Z,98351.38
2018-08-25T11:20:17.214Z,98343.48
2018-08-25T11:22:46.397Z,98345.09
2018-08-25T11:25:15.562Z,98339.04
2018-08-25T11:27:44.813Z,98336.80
2018-08-25T11:30:14.295Z,98332.20
2018-08-25T11:32:43.559Z,98328.23
2018-08-25T11:35:12.738Z,98330.39
2018-08-25T11:37:41.977Z,98323.67
2018-08-25T11:40:11.748Z,98320.02
2018-08-25T11:42:40.933Z,98324.63
2018-08-25T11:45:12.690Z,98323.67
2018-08-25T11:47:41.912Z,98325.83
2018-08-25T11:50:12.087Z,98321.24
2018-08-25T11:52:41.629Z,98321.67
2018-08-25T11:55:11.622Z,98323.52
2018-08-25T11:57:40.836Z,98317.22
2018-08-25T12:00:10.570Z,98319.22
2018-08-25T12:02:40.269Z,98327.61
2018-08-25T12:05:09.533Z,98315.87
2018-08-25T12:07:39.798Z,98316.26
2018-08-25T12:10:09.265Z,98317.13
2018-08-25T12:12:42.964Z,98312.84
2018-08-25T12:15:15.344Z,98311.57
2018-08-25T12:17:44.774Z,98310.67
2018-08-25T12:20:15.422Z,98314.58
2018-08-25T12:22:44.669Z,98303.50
2018-08-25T12:25:13.862Z,98302.48
2018-08-25T12:27:43.595Z,98300.17
2018-08-25T12:30:13.067Z,98301.77
2018-08-25T12:32:42.325Z,98299.45
2018-08-25T12:35:11.814Z,98302.63
2018-08-25T12:37:41.028Z,98298.42
2018-08-25T12:40:13.773Z,98299.53
2018-08-25T12:42:43.437Z,98296.27
2018-08-25T12:45:13.330Z,98285.98
2018-08-25T12:47:42.428Z,98289.33
2018-08-25T12:50:11.871Z,98288.86
2018-08-25T12:52:42.490Z,98285.09
2018-08-25T12:55:12.227Z,98284.29
2018-08-25T12:57:41.861Z,98283.90
2018-08-25T13:00:11.829Z,98281.91
2018-08-25T13:02:41.031Z,98287.06
2018-08-25T13:05:11.062Z,98274.85
2018-08-25T13:07:41.532Z,98274.22
2018-08-25T13:10:10.817Z,98263.57
2018-08-25T13:12:40.627Z,98266.13
2018-08-25T13:15:10.746Z,98263.70
2018-08-25T13:17:40.490Z,98269.40
2018-08-25T13:20:10.617Z,98268.35
2018-08-25T13:22:39.961Z,98261.75
2018-08-25T13:25:09.190Z,98267.70
2018-08-25T13:27:38.708Z,98259.08
2018-08-25T13:30:07.970Z,98258.67
2018-08-25T13:32:37.199Z,98254.97
2018-08-25T13:35:06.784Z,98249.08
2018-08-25T13:37:38.032Z,98246.64
2018-08-25T13:40:07.658Z,98248.70
2018-08-25T13:42:36.883Z,98243.92
2018-08-25T13:45:07.750Z,98240.35
2018-08-25T13:47:37.071Z,98238.38
2018-08-25T13:50:06.811Z,98250.13
2018-08-25T13:52:36.157Z,98243.35
2018-08-25T13:55:05.600Z,98239.63
2018-08-25T13:57:35.026Z,98244.88
2018-08-25T14:00:04.293Z,98247.50
2018-08-25T14:02:33.505Z,98239.78
2018-08-25T14:05:03.812Z,98247.66
2018-08-25T14:07:33.299Z,98248.05
2018-08-25T14:10:03.344Z,98252.61
2018-08-25T14:12:32.548Z,98247.74
2018-08-25T14:15:01.814Z,98247.74
2018-08-25T14:17:31.816Z,98241.73
2018-08-25T14:20:01.280Z,98245.63
2018-08-25T14:22:30.480Z,98238.69
2018-08-25T14:25:00.385Z,98241.64
2018-08-25T14:27:29.697Z,98240.77
2018-08-25T14:29:58.907Z,98238.56
2018-08-25T14:32:28.197Z,98229.93
2018-08-25T14:34:58.567Z,98223.24
2018-08-25T14:37:27.805Z,98226.91
2018-08-25T14:39:57.915Z,98225.14
2018-08-25T14:42:27.953Z,98221.02
2018-08-25T14:44:57.230Z,98228.16
2018-08-25T14:47:26.412Z,98232.22
2018-08-25T14:49:55.854Z,98238.69
2018-08-25T14:52:26.074Z,98235.48
2018-08-25T14:54:55.256Z,98235.97
2018-08-25T14:57:24.697Z,98239.28
2018-08-25T14:59:53.977Z,98234.74
2018-08-25T15:02:23.581Z,98228.61
2018-08-25T15:04:52.955Z,98222.31
2018-08-25T15:07:22.280Z,98222.72
2018-08-25T15:09:51.759Z,98225.34
2018-08-25T15:12:20.959Z,98229.48
2018-08-25T15:14:50.203Z,98235.12
2018-08-25T15:17:19.542Z,98237.55
2018-08-25T15:19:48.712Z,98230.93
2018-08-25T15:22:17.899Z,98225.49
2018-08-25T15:24:47.995Z,98232.83
2018-08-25T15:27:17.354Z,98222.70
2018-08-25T15:29:46.684Z,98226.27
2018-08-25T15:32:15.852Z,98223.95
2018-08-25T15:34:45.320Z,98220.45
2018-08-25T15:37:14.592Z,98215.16
2018-08-25T15:39:43.817Z,98224.11
2018-08-25T15:42:13.128Z,98230.72
2018-08-25T15:44:42.414Z,98236.20
2018-08-25T15:47:12.814Z,98236.63
2018-08-25T15:49:42.121Z,98241.05
2018-08-25T15:52:11.557Z,98241.92
2018-08-25T15:54:41.070Z,98243.41
2018-08-25T15:57:11.716Z,98239.50
2018-08-25T15:59:41.007Z,98242.95
2018-08-25T16:02:10.893Z,98242.57
2018-08-25T16:04:40.185Z,98243.25
2018-08-25T16:07:09.470Z,98243.93
2018-08-25T16:09:38.746Z,98240.08
2018-08-25T16:12:11.262Z,98237.92
2018-08-25T16:14:40.407Z,98246.70
2018-08-25T16:17:09.752Z,98247.63
2018-08-25T16:19:39.003Z,98247.25
2018-08-25T16:22:08.129Z,98250.88
2018-08-25T16:24:38.235Z,98256.17
2018-08-25T16:27:07.756Z,98258.11
2018-08-25T16:29:37.822Z,98258.69
2018-08-25T16:32:06.993Z,98267.36
2018-08-25T16:34:36.143Z,98275.08
2018-08-25T16:37:05.355Z,98271.37
2018-08-25T16:39:34.626Z,98274.28
2018-08-25T16:42:03.773Z,98281.13
2018-08-25T16:44:32.969Z,98281.78
2018-08-25T16:47:02.195Z,98277.48
2018-08-25T16:49:31.476Z,98277.48
2018-08-25T16:52:00.822Z,98277.63
2018-08-25T16:54:30.148Z,98279.58
2018-08-25T16:56:59.385Z,98277.81
2018-08-25T16:59:29.154Z,98277.87
2018-08-25T17:01:58.425Z,98278.99
2018-08-25T17:04:28.432Z,98282.12
2018-08-25T17:06:57.636Z,98290.53
2018-08-25T17:09:26.812Z,98287.44
2018-08-25T17:11:55.999Z,98292.56
2018-08-25T17:14:25.157Z,98290.55
2018-08-25T17:16:54.292Z,98297.12
2018-08-25T17:19:23.734Z,98302.60
2018-08-25T17:21:53.003Z,98305.16
2018-08-25T17:24:22.125Z,98306.47
2018-08-25T17:26:57.464Z,98312.44
2018-08-25T17:29:26.597Z,98322.22
2018-08-25T17:31:55.791Z,98325.39
2018-08-25T17:34:25.846Z,98328.22
2018-08-25T17:36:55.048Z,98327.19
2018-08-25T17:39:24.196Z,98325.03
2018-08-25T17:41:53.393Z,98335.30
2018-08-25T17:44:22.542Z,98337.27
2018-08-25T17:46:51.810Z,98342.38
2018-08-25T17:49:21.913Z,98345.88
2018-08-25T17:51:51.685Z,98348.65
2018-08-25T17:54:20.865Z,98345.53
2018-08-25T17:56:52.099Z,98346.91
2018-08-25T17:59:22.154Z,98349.23
2018-08-25T18:01:52.381Z,98362.30
2018-08-25T18:04:21.598Z,98366.80
2018-08-25T18:06:51.374Z,98367.10
2018-08-25T18:09:21.092Z,98366.30
2018-08-25T18:11:50.253Z,98366.13
2018-08-25T18:14:19.581Z,98378.25
2018-08-25T18:16:49.701Z,98380.63
2018-08-25T18:19:19.304Z,98380.59
2018-08-25T18:21:48.474Z,98388.47
2018-08-25T18:24:17.922Z,98391.16
2018-08-25T18:26:47.117Z,98393.08
2018-08-25T18:29:16.295Z,98400.41
2018-08-25T18:31:45.482Z,98403.67
2018-08-25T18:34:14.824Z,98406.91
2018-08-25T18:36:44.014Z,98409.92
2018-08-25T18:39:14.305Z,98405.89
2018-08-25T18:41:44.737Z,98413.89
2018-08-25T18:44:14.514Z,98415.81
2018-08-25T18:46:43.785Z,98419.64
2018-08-25T18:49:14.209Z,98419.64
2018-08-25T18:51:43.422Z,98427.73
2018-08-25T18:54:19.246Z,98421.82
2018-08-25T18:56:48.607Z,98424.30
2018-08-25T18:59:17.924Z,98430.79
2018-08-25T19:01:47.446Z,98436.67
2018-08-25T19:04:16.896Z,98434.55
2018-08-25T19:06:46.166Z,98435.09
2018-08-25T19:09:15.595Z,98439.16
2018-08-25T19:11:44.740Z,98444.83
2018-08-25T19:14:14.093Z,98444.00
2018-08-25T19:16:43.492Z,98445.07
2018-08-25T19:19:12.755Z,98441.84
2018-08-25T19:21:42.250Z,98442.65
2018-08-25T19:24:11.521Z,98445.31
2018-08-25T19:26:40.689Z,98434.05
2018-08-25T19:29:09.881Z,98432.70
2018-08-25T19:31:39.109Z,98433.23
2018-08-25T19:34:08.286Z,98433.83
2018-08-25T19:36:37.440Z,98436.28
2018-08-25T19:39:09.189Z,98440.31
2018-08-25T19:41:38.396Z,98444.30
2018-08-25T19:44:07.522Z,98448.17
2018-08-25T19:46:36.770Z,98448.76
2018-08-25T19:49:06.262Z,98450.66
2018-08-25T19:51:35.425Z,98451.47
2018-08-25T19:54:04.829Z,98452.84
2018-08-25T19:56:33.965Z,98457.14
2018-08-25T19:59:03.334Z,98466.59
2018-08-25T20:01:32.510Z,98468.77
2018-08-25T20:04:01.671Z,98463.13
2018-08-25T20:06:30.862Z,98468.23
2018-08-25T20:09:00.017Z,98470.97
2018-08-25T20:11:29.190Z,98474.21
2018-08-25T20:13:58.354Z,98467.27
2018-08-25T20:16:27.505Z,98471.88
2018-08-25T20:18:56.674Z,98472.20
2018-08-25T20:21:25.865Z,98468.70
2018-08-25T20:23:55.015Z,98462.28
2018-08-25T20:26:24.278Z,98447.52
2018-08-25T20:28:53.545Z,98453.18
2018-08-25T20:31:22.886Z,98449.98
2018-08-25T20:33:52.211Z,98448.89
2018-08-25T20:36:21.524Z,98449.18
2018-08-25T20:38:51.037Z,98465.05
2018-08-25T20:41:20.190Z,98465.59
2018-08-25T20:43:49.325Z,98468.02
2018-08-25T20:46:18.514Z,98472.35
2018-08-25T20:48:47.687Z,98479.05
2018-08-25T20:51:17.526Z,98485.23
2018-08-25T20:53:47.845Z,98487.36
2018-08-25T20:56:16.985Z,98492.99
2018-08-25T20:58:46.102Z,98498.66
2018-08-25T21:01:15.260Z,98490.86
2018-08-25T21:03:44.420Z,98491.42
2018-08-25T21:06:13.601Z,98483.38
2018-08-25T21:08:42.745Z,98491.69
2018-08-25T21:11:11.947Z,98500.83
2018-08-25T21:13:41.125Z,98496.80
2018-08-25T21:16:10.278Z,98505.38
2018-08-25T21:18:39.637Z,98505.62
2018-08-25T21:21:08.969Z,98505.38
2018-08-25T21:23:38.155Z,98515.33
2018-08-25T21:26:07.730Z,98515.59
2018-08-25T21:28:36.869Z,98520.70
2018-08-25T21:31:06.384Z,98525.81
2018-08-25T21:33:35.547Z,98522.59
2018-08-25T21:36:04.681Z,98526.10
2018-08-25T21:38:33.854Z,98522.63
2018-08-25T21:41:03.035Z,98523.17
2018-08-25T21:43:32.152Z,98532.05
2018-08-25T21:46:01.316Z,98541.17
2018-08-25T21:48:30.461Z,98546.27
2018-08-25T21:50:59.724Z,98545.78
2018-08-25T21:53:28.942Z,98541.23
2018-08-25T21:55:58.070Z,98540.68
2018-08-25T21:58:27.293Z,98550.64
2018-08-25T22:00:57.498Z,98557.89
2018-08-25T22:03:27.856Z,98547.97
2018-08-25T22:05:57.655Z,98551.73
2018-08-25T22:08:26.820Z,98554.70
2018-08-25T22:10:55.973Z,98550.41
2018-08-25T22:13:25.112Z,98551.49
2018-08-25T22:15:54.393Z,98542.35
2018-08-25T22:18:23.517Z,98537.30
2018-08-25T22:20:53.023Z,98540.25
2018-08-25T22:23:22.374Z,98532.47
2018-08-25T22:25:51.732Z,98535.95
2018-08-25T22:28:21.105Z,98531.93
2018-08-25T22:30:50.724Z,98535.17
2018-08-25T22:33:19.880Z,98535.42
2018-08-25T22:35:49.210Z,98537.84
2018-08-25T22:38:26.070Z,98539.72
2018-08-25T22:40:59.537Z,98541.89
2018-08-25T22:43:28.744Z,98539.74
2018-08-25T22:45:57.932Z,98540.80
2018-08-25T22:48:27.129Z,98538.65
2018-08-25T22:50:56.351Z,98539.74
2018-08-25T22:53:25.616Z,98535.95
2018-08-25T22:55:54.868Z,98539.20
2018-08-25T22:58:24.051Z,98529.79
2018-08-25T23:00:53.641Z,98526.57
2018-08-25T23:03:22.967Z,98528.45
2018-08-25T23:05:52.293Z,98530.89
2018-08-25T23:08:21.494Z,98527.41
2018-08-25T23:10:50.922Z,98513.20
2018-08-25T23:13:20.233Z,98511.88
2018-08-25T23:15:49.452Z,98506.23
2018-08-25T23:18:18.720Z,98503.55
2018-08-25T23:20:48.122Z,98500.34
2018-08-25T23:23:17.540Z,98491.78
2018-08-25T23:25:46.821Z,98486.66
2018-08-25T23:28:16.137Z,98486.66
2018-08-25T23:30:45.354Z,98487.20
2018-08-25T23:33:18.376Z,98486.41
2018-08-25T23:35:47.590Z,98485.61
2018-08-25T23:38:17.013Z,98483.73
2018-08-25T23:40:46.294Z,98477.03
2018-08-25T23:43:15.748Z,98477.83
2018-08-25T23:45:45.243Z,98481.61
2018-08-25T23:48:14.634Z,98480.25
2018-08-25T23:50:43.930Z,98487.23
2018-08-25T23:53:13.473Z,98485.36
2018-08-25T23:55:42.848Z,98487.20
2018-08-25T23:58:12.095Z,98491.22
